sensor_id;sensor_type;location;lat;lon;timestamp;temperature;humidity
3067;DHT22;1544;48.834;9.194;2022-08-19T00:01:06;22.30;42.20
3067;DHT22;1544;48.834;9.194;2022-08-19T00:03:41;22.30;42.20
3067;DHT22;1544;48.834;9.194;2022-08-19T00:06:16;22.20;42.30
3067;DHT22;1544;48.834;9.194;2022-08-19T00:08:55;22.30;42.30
3067;DHT22;1544;48.834;9.194;2022-08-19T00:11:31;22.30;42.30
3067;DHT22;1544;48.834;9.194;2022-08-19T00:14:08;22.30;42.40
3067;DHT22;1544;48.834;9.194;2022-08-19T00:16:46;22.30;42.40
3067;DHT22;1544;48.834;9.194;2022-08-19T00:19:23;22.30;42.40
3067;DHT22;1544;48.834;9.194;2022-08-19T00:21:58;22.30;42.40
3067;DHT22;1544;48.834;9.194;2022-08-19T00:24:34;22.30;42.40
3067;DHT22;1544;48.834;9.194;2022-08-19T00:27:09;22.30;42.40
3067;DHT22;1544;48.834;9.194;2022-08-19T00:30:00;22.30;42.30
3067;DHT22;1544;48.834;9.194;2022-08-19T00:32:38;22.30;42.40
3067;DHT22;1544;48.834;9.194;2022-08-19T00:35:13;22.30;42.30
3067;DHT22;1544;48.834;9.194;2022-08-19T00:37:49;22.20;42.40
3067;DHT22;1544;48.834;9.194;2022-08-19T00:40:24;22.30;42.40
3067;DHT22;1544;48.834;9.194;2022-08-19T00:43:00;22.30;42.40
3067;DHT22;1544;48.834;9.194;2022-08-19T00:45:35;22.20;42.30
3067;DHT22;1544;48.834;9.194;2022-08-19T00:48:11;22.20;42.30
3067;DHT22;1544;48.834;9.194;2022-08-19T00:50:50;22.20;42.40
3067;DHT22;1544;48.834;9.194;2022-08-19T00:53:28;22.20;42.50
3067;DHT22;1544;48.834;9.194;2022-08-19T00:56:05;22.10;42.50
3067;DHT22;1544;48.834;9.194;2022-08-19T00:58:41;22.20;42.50
3067;DHT22;1544;48.834;9.194;2022-08-19T01:01:16;22.20;42.50
3067;DHT22;1544;48.834;9.194;2022-08-19T01:03:51;22.20;42.50
3067;DHT22;1544;48.834;9.194;2022-08-19T01:06:33;22.20;42.50
3067;DHT22;1544;48.834;9.194;2022-08-19T01:09:09;22.20;42.50
3067;DHT22;1544;48.834;9.194;2022-08-19T01:11:44;22.20;42.50
3067;DHT22;1544;48.834;9.194;2022-08-19T01:14:20;22.20;42.50
3067;DHT22;1544;48.834;9.194;2022-08-19T01:16:56;22.20;42.50
3067;DHT22;1544;48.834;9.194;2022-08-19T01:19:36;22.20;42.50
3067;DHT22;1544;48.834;9.194;2022-08-19T01:25:06;22.20;42.60
3067;DHT22;1544;48.834;9.194;2022-08-19T01:27:50;22.20;42.60
3067;DHT22;1544;48.834;9.194;2022-08-19T01:30:30;22.20;42.70
3067;DHT22;1544;48.834;9.194;2022-08-19T01:33:07;22.20;42.90
3067;DHT22;1544;48.834;9.194;2022-08-19T01:35:42;22.10;42.90
3067;DHT22;1544;48.834;9.194;2022-08-19T01:38:25;22.10;43.00
3067;DHT22;1544;48.834;9.194;2022-08-19T01:41:00;22.10;43.00
3067;DHT22;1544;48.834;9.194;2022-08-19T01:43:44;22.10;43.20
3067;DHT22;1544;48.834;9.194;2022-08-19T01:46:39;22.10;43.30
3067;DHT22;1544;48.834;9.194;2022-08-19T01:49:18;22.00;43.40
3067;DHT22;1544;48.834;9.194;2022-08-19T01:51:55;22.00;43.50
3067;DHT22;1544;48.834;9.194;2022-08-19T01:54:30;21.90;43.90
3067;DHT22;1544;48.834;9.194;2022-08-19T01:57:09;22.00;43.70
3067;DHT22;1544;48.834;9.194;2022-08-19T01:59:46;22.00;43.80
3067;DHT22;1544;48.834;9.194;2022-08-19T02:02:21;21.90;43.80
3067;DHT22;1544;48.834;9.194;2022-08-19T02:04:56;22.00;44.00
3067;DHT22;1544;48.834;9.194;2022-08-19T02:07:31;21.90;44.10
3067;DHT22;1544;48.834;9.194;2022-08-19T02:10:11;21.90;44.10
3067;DHT22;1544;48.834;9.194;2022-08-19T02:12:52;21.90;44.40
3067;DHT22;1544;48.834;9.194;2022-08-19T02:15:27;21.80;44.50
3067;DHT22;1544;48.834;9.194;2022-08-19T02:18:03;21.80;44.70
3067;DHT22;1544;48.834;9.194;2022-08-19T02:20:39;21.80;44.70
3067;DHT22;1544;48.834;9.194;2022-08-19T02:23:16;21.80;44.90
3067;DHT22;1544;48.834;9.194;2022-08-19T02:25:51;21.80;45.10
3067;DHT22;1544;48.834;9.194;2022-08-19T02:28:27;21.80;45.30
3067;DHT22;1544;48.834;9.194;2022-08-19T02:31:02;21.70;45.30
3067;DHT22;1544;48.834;9.194;2022-08-19T02:33:38;21.70;45.50
3067;DHT22;1544;48.834;9.194;2022-08-19T02:36:14;21.70;45.70
3067;DHT22;1544;48.834;9.194;2022-08-19T02:38:54;21.70;45.80
3067;DHT22;1544;48.834;9.194;2022-08-19T02:41:31;21.60;46.00
3067;DHT22;1544;48.834;9.194;2022-08-19T02:44:07;21.60;46.20
3067;DHT22;1544;48.834;9.194;2022-08-19T02:47:03;21.60;46.30
3067;DHT22;1544;48.834;9.194;2022-08-19T02:49:38;21.60;46.50
3067;DHT22;1544;48.834;9.194;2022-08-19T02:52:13;21.60;46.60
3067;DHT22;1544;48.834;9.194;2022-08-19T02:54:49;21.60;46.70
3067;DHT22;1544;48.834;9.194;2022-08-19T02:57:24;21.50;47.00
3067;DHT22;1544;48.834;9.194;2022-08-19T02:59:59;21.50;46.80
3067;DHT22;1544;48.834;9.194;2022-08-19T03:02:35;21.50;47.00
3067;DHT22;1544;48.834;9.194;2022-08-19T03:05:10;21.50;47.20
3067;DHT22;1544;48.834;9.194;2022-08-19T03:07:45;21.40;47.20
3067;DHT22;1544;48.834;9.194;2022-08-19T03:10:21;21.40;47.70
3067;DHT22;1544;48.834;9.194;2022-08-19T03:12:56;21.40;48.10
3067;DHT22;1544;48.834;9.194;2022-08-19T03:15:31;21.40;48.40
3067;DHT22;1544;48.834;9.194;2022-08-19T03:18:06;21.30;48.40
3067;DHT22;1544;48.834;9.194;2022-08-19T03:20:44;21.30;48.70
3067;DHT22;1544;48.834;9.194;2022-08-19T03:23:23;21.30;48.60
3067;DHT22;1544;48.834;9.194;2022-08-19T03:25:58;21.30;49.40
3067;DHT22;1544;48.834;9.194;2022-08-19T03:28:50;21.20;49.00
3067;DHT22;1544;48.834;9.194;2022-08-19T03:31:32;21.20;48.80
3067;DHT22;1544;48.834;9.194;2022-08-19T03:34:27;21.20;48.80
3067;DHT22;1544;48.834;9.194;2022-08-19T03:37:06;21.20;48.70
3067;DHT22;1544;48.834;9.194;2022-08-19T03:39:43;21.20;48.80
3067;DHT22;1544;48.834;9.194;2022-08-19T03:42:18;21.10;48.80
3067;DHT22;1544;48.834;9.194;2022-08-19T03:45:13;21.10;48.90
3067;DHT22;1544;48.834;9.194;2022-08-19T03:47:48;21.10;48.90
3067;DHT22;1544;48.834;9.194;2022-08-19T03:50:23;21.10;49.10
3067;DHT22;1544;48.834;9.194;2022-08-19T03:52:58;21.10;49.20
3067;DHT22;1544;48.834;9.194;2022-08-19T03:55:40;21.10;49.20
3067;DHT22;1544;48.834;9.194;2022-08-19T03:58:15;21.00;49.30
3067;DHT22;1544;48.834;9.194;2022-08-19T04:00:50;21.10;49.60
3067;DHT22;1544;48.834;9.194;2022-08-19T04:03:25;21.00;49.40
3067;DHT22;1544;48.834;9.194;2022-08-19T04:06:13;21.00;49.40
3067;DHT22;1544;48.834;9.194;2022-08-19T04:08:52;21.00;49.50
3067;DHT22;1544;48.834;9.194;2022-08-19T04:11:33;21.00;49.60
3067;DHT22;1544;48.834;9.194;2022-08-19T04:14:20;21.00;49.60
3067;DHT22;1544;48.834;9.194;2022-08-19T04:16:59;21.00;49.60
3067;DHT22;1544;48.834;9.194;2022-08-19T04:19:35;21.00;49.60
3067;DHT22;1544;48.834;9.194;2022-08-19T04:22:10;21.00;49.60
3067;DHT22;1544;48.834;9.194;2022-08-19T04:24:46;20.90;49.80
3067;DHT22;1544;48.834;9.194;2022-08-19T04:27:21;20.90;49.90
3067;DHT22;1544;48.834;9.194;2022-08-19T04:29:57;20.90;49.80
3067;DHT22;1544;48.834;9.194;2022-08-19T04:32:32;20.90;50.00
3067;DHT22;1544;48.834;9.194;2022-08-19T04:35:07;20.90;49.80
3067;DHT22;1544;48.834;9.194;2022-08-19T04:37:52;20.90;50.10
3067;DHT22;1544;48.834;9.194;2022-08-19T04:40:27;20.90;50.10
3067;DHT22;1544;48.834;9.194;2022-08-19T04:43:20;20.90;50.10
3067;DHT22;1544;48.834;9.194;2022-08-19T04:45:56;20.90;50.10
3067;DHT22;1544;48.834;9.194;2022-08-19T04:48:35;20.90;50.40
3067;DHT22;1544;48.834;9.194;2022-08-19T04:51:17;20.90;50.50
3067;DHT22;1544;48.834;9.194;2022-08-19T04:53:53;20.90;50.40
3067;DHT22;1544;48.834;9.194;2022-08-19T04:56:28;20.90;50.20
3067;DHT22;1544;48.834;9.194;2022-08-19T04:59:04;20.90;50.10
3067;DHT22;1544;48.834;9.194;2022-08-19T05:01:38;20.90;50.20
3067;DHT22;1544;48.834;9.194;2022-08-19T05:04:13;20.90;50.10
3067;DHT22;1544;48.834;9.194;2022-08-19T05:06:55;20.90;50.00
3067;DHT22;1544;48.834;9.194;2022-08-19T05:09:35;20.90;50.00
3067;DHT22;1544;48.834;9.194;2022-08-19T05:12:30;20.90;50.00
3067;DHT22;1544;48.834;9.194;2022-08-19T05:15:06;20.90;50.00
3067;DHT22;1544;48.834;9.194;2022-08-19T05:17:43;20.90;49.90
3067;DHT22;1544;48.834;9.194;2022-08-19T05:20:38;20.90;50.10
3067;DHT22;1544;48.834;9.194;2022-08-19T05:23:32;20.90;50.10
3067;DHT22;1544;48.834;9.194;2022-08-19T05:26:07;21.00;49.90
3067;DHT22;1544;48.834;9.194;2022-08-19T05:28:43;21.00;49.80
3067;DHT22;1544;48.834;9.194;2022-08-19T05:31:19;21.00;49.70
3067;DHT22;1544;48.834;9.194;2022-08-19T05:33:54;21.10;49.70
3067;DHT22;1544;48.834;9.194;2022-08-19T05:36:36;21.00;49.70
3067;DHT22;1544;48.834;9.194;2022-08-19T05:39:17;21.10;49.50
3067;DHT22;1544;48.834;9.194;2022-08-19T05:41:59;21.10;49.40
3067;DHT22;1544;48.834;9.194;2022-08-19T05:44:40;21.10;49.40
3067;DHT22;1544;48.834;9.194;2022-08-19T05:47:18;21.10;49.40
3067;DHT22;1544;48.834;9.194;2022-08-19T05:49:54;21.10;49.30
3067;DHT22;1544;48.834;9.194;2022-08-19T05:52:29;21.10;49.30
3067;DHT22;1544;48.834;9.194;2022-08-19T05:55:06;21.10;49.20
3067;DHT22;1544;48.834;9.194;2022-08-19T05:57:41;21.20;49.40
3067;DHT22;1544;48.834;9.194;2022-08-19T06:00:16;21.20;49.40
3067;DHT22;1544;48.834;9.194;2022-08-19T06:02:58;21.20;49.40
3067;DHT22;1544;48.834;9.194;2022-08-19T06:05:47;21.10;49.50
3067;DHT22;1544;48.834;9.194;2022-08-19T06:08:26;21.10;49.70
3067;DHT22;1544;48.834;9.194;2022-08-19T06:11:17;21.20;49.60
3067;DHT22;1544;48.834;9.194;2022-08-19T06:13:55;21.10;49.70
3067;DHT22;1544;48.834;9.194;2022-08-19T06:16:36;21.10;49.80
3067;DHT22;1544;48.834;9.194;2022-08-19T06:19:16;21.20;49.80
3067;DHT22;1544;48.834;9.194;2022-08-19T06:21:52;21.20;49.70
3067;DHT22;1544;48.834;9.194;2022-08-19T06:24:29;21.20;49.80
3067;DHT22;1544;48.834;9.194;2022-08-19T06:27:04;21.20;49.90
3067;DHT22;1544;48.834;9.194;2022-08-19T06:29:40;21.10;49.80
3067;DHT22;1544;48.834;9.194;2022-08-19T06:32:16;21.10;50.20
3067;DHT22;1544;48.834;9.194;2022-08-19T06:34:53;21.20;50.60
3067;DHT22;1544;48.834;9.194;2022-08-19T06:37:28;21.20;50.90
3067;DHT22;1544;48.834;9.194;2022-08-19T06:40:03;21.20;51.50
3067;DHT22;1544;48.834;9.194;2022-08-19T06:42:39;21.20;51.00
3067;DHT22;1544;48.834;9.194;2022-08-19T06:45:28;21.20;52.00
3067;DHT22;1544;48.834;9.194;2022-08-19T06:48:09;21.20;53.10
3067;DHT22;1544;48.834;9.194;2022-08-19T06:50:45;21.30;52.50
3067;DHT22;1544;48.834;9.194;2022-08-19T06:53:21;21.30;53.20
3067;DHT22;1544;48.834;9.194;2022-08-19T06:55:57;21.30;52.50
3067;DHT22;1544;48.834;9.194;2022-08-19T06:58:36;21.30;52.30
3067;DHT22;1544;48.834;9.194;2022-08-19T07:01:13;21.30;53.20
3067;DHT22;1544;48.834;9.194;2022-08-19T07:03:48;21.20;54.20
3067;DHT22;1544;48.834;9.194;2022-08-19T07:06:24;21.20;52.80
3067;DHT22;1544;48.834;9.194;2022-08-19T07:09:18;21.20;53.10
3067;DHT22;1544;48.834;9.194;2022-08-19T07:11:55;21.30;52.20
3067;DHT22;1544;48.834;9.194;2022-08-19T07:14:30;21.30;52.50
3067;DHT22;1544;48.834;9.194;2022-08-19T07:17:09;21.30;51.60
3067;DHT22;1544;48.834;9.194;2022-08-19T07:19:45;21.40;51.40
3067;DHT22;1544;48.834;9.194;2022-08-19T07:22:21;21.50;51.90
3067;DHT22;1544;48.834;9.194;2022-08-19T07:25:00;21.50;50.20
3067;DHT22;1544;48.834;9.194;2022-08-19T07:27:37;21.60;49.90
3067;DHT22;1544;48.834;9.194;2022-08-19T07:30:20;21.60;50.20
3067;DHT22;1544;48.834;9.194;2022-08-19T07:33:00;21.60;49.50
3067;DHT22;1544;48.834;9.194;2022-08-19T07:35:37;21.60;49.30
3067;DHT22;1544;48.834;9.194;2022-08-19T07:38:12;21.60;48.90
3067;DHT22;1544;48.834;9.194;2022-08-19T07:40:49;21.70;48.20
3067;DHT22;1544;48.834;9.194;2022-08-19T07:43:26;21.60;47.90
3067;DHT22;1544;48.834;9.194;2022-08-19T07:46:09;21.60;47.90
3067;DHT22;1544;48.834;9.194;2022-08-19T07:48:50;21.60;48.00
3067;DHT22;1544;48.834;9.194;2022-08-19T07:51:26;21.60;47.60
3067;DHT22;1544;48.834;9.194;2022-08-19T07:54:10;21.60;47.80
3067;DHT22;1544;48.834;9.194;2022-08-19T07:56:46;21.60;47.70
3067;DHT22;1544;48.834;9.194;2022-08-19T07:59:22;21.60;47.80
3067;DHT22;1544;48.834;9.194;2022-08-19T08:01:57;21.60;48.00
3067;DHT22;1544;48.834;9.194;2022-08-19T08:04:35;21.60;48.20
3067;DHT22;1544;48.834;9.194;2022-08-19T08:07:28;21.50;48.30
3067;DHT22;1544;48.834;9.194;2022-08-19T08:10:22;21.50;48.40
3067;DHT22;1544;48.834;9.194;2022-08-19T08:12:58;21.50;48.70
3067;DHT22;1544;48.834;9.194;2022-08-19T08:15:44;21.40;49.20
3067;DHT22;1544;48.834;9.194;2022-08-19T08:18:19;21.50;49.80
3067;DHT22;1544;48.834;9.194;2022-08-19T08:20:56;21.50;49.30
3067;DHT22;1544;48.834;9.194;2022-08-19T08:23:31;21.50;49.30
3067;DHT22;1544;48.834;9.194;2022-08-19T08:26:06;21.50;49.20
3067;DHT22;1544;48.834;9.194;2022-08-19T08:28:42;21.60;49.40
3067;DHT22;1544;48.834;9.194;2022-08-19T08:31:23;21.60;49.10
3067;DHT22;1544;48.834;9.194;2022-08-19T08:33:59;21.60;49.10
3067;DHT22;1544;48.834;9.194;2022-08-19T08:36:38;21.60;51.60
3067;DHT22;1544;48.834;9.194;2022-08-19T08:39:18;21.60;53.20
3067;DHT22;1544;48.834;9.194;2022-08-19T08:42:27;21.60;53.30
3067;DHT22;1544;48.834;9.194;2022-08-19T08:45:13;21.60;53.70
3067;DHT22;1544;48.834;9.194;2022-08-19T08:47:52;21.70;53.20
3067;DHT22;1544;48.834;9.194;2022-08-19T08:50:42;21.70;52.50
3067;DHT22;1544;48.834;9.194;2022-08-19T08:53:19;21.80;53.10
3067;DHT22;1544;48.834;9.194;2022-08-19T08:56:06;21.80;53.30
3067;DHT22;1544;48.834;9.194;2022-08-19T08:58:59;21.80;53.70
3067;DHT22;1544;48.834;9.194;2022-08-19T09:01:38;21.90;54.00
3067;DHT22;1544;48.834;9.194;2022-08-19T09:04:14;22.00;53.20
3067;DHT22;1544;48.834;9.194;2022-08-19T09:07:20;22.20;52.50
3067;DHT22;1544;48.834;9.194;2022-08-19T09:10:37;22.20;51.80
3067;DHT22;1544;48.834;9.194;2022-08-19T09:13:21;22.20;50.90
3067;DHT22;1544;48.834;9.194;2022-08-19T09:16:20;22.20;50.60
3067;DHT22;1544;48.834;9.194;2022-08-19T09:19:05;22.30;51.00
3067;DHT22;1544;48.834;9.194;2022-08-19T09:21:41;22.30;51.10
3067;DHT22;1544;48.834;9.194;2022-08-19T09:24:16;22.40;50.70
3067;DHT22;1544;48.834;9.194;2022-08-19T09:26:51;22.40;51.00
3067;DHT22;1544;48.834;9.194;2022-08-19T09:29:26;22.50;50.60
3067;DHT22;1544;48.834;9.194;2022-08-19T09:32:02;22.60;49.80
3067;DHT22;1544;48.834;9.194;2022-08-19T09:34:37;22.80;49.00
3067;DHT22;1544;48.834;9.194;2022-08-19T09:37:17;22.80;48.30
3067;DHT22;1544;48.834;9.194;2022-08-19T09:39:52;22.90;47.40
3067;DHT22;1544;48.834;9.194;2022-08-19T09:42:28;22.90;47.60
3067;DHT22;1544;48.834;9.194;2022-08-19T09:45:09;23.00;47.30
3067;DHT22;1544;48.834;9.194;2022-08-19T09:47:45;23.00;47.00
3067;DHT22;1544;48.834;9.194;2022-08-19T09:50:22;23.00;46.40
3067;DHT22;1544;48.834;9.194;2022-08-19T09:52:58;23.00;46.90
3067;DHT22;1544;48.834;9.194;2022-08-19T09:55:33;23.10;46.90
3067;DHT22;1544;48.834;9.194;2022-08-19T09:58:08;23.20;46.70
3067;DHT22;1544;48.834;9.194;2022-08-19T10:00:43;23.20;45.90
3067;DHT22;1544;48.834;9.194;2022-08-19T10:03:26;23.20;45.60
3067;DHT22;1544;48.834;9.194;2022-08-19T10:06:05;23.20;45.60
3067;DHT22;1544;48.834;9.194;2022-08-19T10:08:49;23.20;45.70
3067;DHT22;1544;48.834;9.194;2022-08-19T10:11:26;23.20;45.50
3067;DHT22;1544;48.834;9.194;2022-08-19T10:14:13;23.30;45.50
3067;DHT22;1544;48.834;9.194;2022-08-19T10:16:49;23.30;45.30
3067;DHT22;1544;48.834;9.194;2022-08-19T10:19:26;23.40;44.90
3067;DHT22;1544;48.834;9.194;2022-08-19T10:22:05;23.40;44.80
3067;DHT22;1544;48.834;9.194;2022-08-19T10:24:46;23.40;44.80
3067;DHT22;1544;48.834;9.194;2022-08-19T10:27:21;23.50;44.60
3067;DHT22;1544;48.834;9.194;2022-08-19T10:29:56;23.60;44.50
3067;DHT22;1544;48.834;9.194;2022-08-19T10:32:32;23.70;44.50
3067;DHT22;1544;48.834;9.194;2022-08-19T10:35:08;23.80;44.00
3067;DHT22;1544;48.834;9.194;2022-08-19T10:37:43;23.90;43.60
3067;DHT22;1544;48.834;9.194;2022-08-19T10:40:31;24.00;43.30
3067;DHT22;1544;48.834;9.194;2022-08-19T10:43:06;24.20;42.90
3067;DHT22;1544;48.834;9.194;2022-08-19T10:45:41;24.20;42.30
3067;DHT22;1544;48.834;9.194;2022-08-19T10:48:26;24.30;42.10
3067;DHT22;1544;48.834;9.194;2022-08-19T10:51:02;24.30;42.00
3067;DHT22;1544;48.834;9.194;2022-08-19T10:53:58;24.20;41.80
3067;DHT22;1544;48.834;9.194;2022-08-19T10:56:34;24.30;41.60
3067;DHT22;1544;48.834;9.194;2022-08-19T10:59:29;24.20;41.40
3067;DHT22;1544;48.834;9.194;2022-08-19T11:02:10;24.10;41.20
3067;DHT22;1544;48.834;9.194;2022-08-19T11:04:47;24.20;41.10
3067;DHT22;1544;48.834;9.194;2022-08-19T11:07:25;24.30;41.00
3067;DHT22;1544;48.834;9.194;2022-08-19T11:10:01;24.40;40.80
3067;DHT22;1544;48.834;9.194;2022-08-19T11:12:38;24.60;40.60
3067;DHT22;1544;48.834;9.194;2022-08-19T11:15:15;24.80;40.10
3067;DHT22;1544;48.834;9.194;2022-08-19T11:17:51;24.90;39.20
3067;DHT22;1544;48.834;9.194;2022-08-19T11:20:29;25.10;39.10
3067;DHT22;1544;48.834;9.194;2022-08-19T11:23:05;25.20;38.90
3067;DHT22;1544;48.834;9.194;2022-08-19T11:25:41;25.10;38.70
3067;DHT22;1544;48.834;9.194;2022-08-19T11:28:16;25.10;38.70
3067;DHT22;1544;48.834;9.194;2022-08-19T11:30:51;25.30;38.80
3067;DHT22;1544;48.834;9.194;2022-08-19T11:33:26;25.30;38.30
3067;DHT22;1544;48.834;9.194;2022-08-19T11:36:01;25.30;38.00
3067;DHT22;1544;48.834;9.194;2022-08-19T11:38:37;25.40;38.10
3067;DHT22;1544;48.834;9.194;2022-08-19T11:41:12;25.30;37.90
3067;DHT22;1544;48.834;9.194;2022-08-19T11:43:47;25.30;38.00
3067;DHT22;1544;48.834;9.194;2022-08-19T11:46:24;25.40;38.00
3067;DHT22;1544;48.834;9.194;2022-08-19T11:49:01;25.50;37.90
3067;DHT22;1544;48.834;9.194;2022-08-19T11:51:37;25.60;37.70
3067;DHT22;1544;48.834;9.194;2022-08-19T11:54:14;25.60;37.60
3067;DHT22;1544;48.834;9.194;2022-08-19T11:56:50;25.70;37.50
3067;DHT22;1544;48.834;9.194;2022-08-19T11:59:25;25.60;37.30
3067;DHT22;1544;48.834;9.194;2022-08-19T12:02:03;25.60;37.40
3067;DHT22;1544;48.834;9.194;2022-08-19T12:04:38;25.50;37.40
3067;DHT22;1544;48.834;9.194;2022-08-19T12:07:13;25.50;37.40
3067;DHT22;1544;48.834;9.194;2022-08-19T12:09:48;25.40;37.50
3067;DHT22;1544;48.834;9.194;2022-08-19T12:12:23;25.40;37.50
3067;DHT22;1544;48.834;9.194;2022-08-19T12:14:59;25.50;37.60
3067;DHT22;1544;48.834;9.194;2022-08-19T12:17:34;25.50;37.60
3067;DHT22;1544;48.834;9.194;2022-08-19T12:20:10;25.40;37.50
3067;DHT22;1544;48.834;9.194;2022-08-19T12:22:47;25.50;37.60
3067;DHT22;1544;48.834;9.194;2022-08-19T12:25:23;25.50;37.60
3067;DHT22;1544;48.834;9.194;2022-08-19T12:27:58;25.40;37.50
3067;DHT22;1544;48.834;9.194;2022-08-19T12:30:37;25.30;37.40
3067;DHT22;1544;48.834;9.194;2022-08-19T12:33:13;25.30;37.50
3067;DHT22;1544;48.834;9.194;2022-08-19T12:35:49;25.40;37.50
3067;DHT22;1544;48.834;9.194;2022-08-19T12:38:24;25.60;37.50
3067;DHT22;1544;48.834;9.194;2022-08-19T12:41:00;25.70;37.30
3067;DHT22;1544;48.834;9.194;2022-08-19T12:43:36;25.80;37.00
3067;DHT22;1544;48.834;9.194;2022-08-19T12:46:12;25.80;36.80
3067;DHT22;1544;48.834;9.194;2022-08-19T12:48:49;26.00;36.50
3067;DHT22;1544;48.834;9.194;2022-08-19T12:51:29;26.20;36.20
3067;DHT22;1544;48.834;9.194;2022-08-19T12:54:07;26.20;36.10
3067;DHT22;1544;48.834;9.194;2022-08-19T12:56:42;26.30;36.00
3067;DHT22;1544;48.834;9.194;2022-08-19T12:59:18;26.30;35.70
3067;DHT22;1544;48.834;9.194;2022-08-19T13:01:53;26.30;35.80
3067;DHT22;1544;48.834;9.194;2022-08-19T13:04:28;26.30;36.10
3067;DHT22;1544;48.834;9.194;2022-08-19T13:07:03;26.30;37.30
3067;DHT22;1544;48.834;9.194;2022-08-19T13:09:38;26.20;37.70
3067;DHT22;1544;48.834;9.194;2022-08-19T13:12:17;26.20;38.90
3067;DHT22;1544;48.834;9.194;2022-08-19T13:14:55;26.10;39.70
3067;DHT22;1544;48.834;9.194;2022-08-19T13:17:33;26.10;39.90
3067;DHT22;1544;48.834;9.194;2022-08-19T13:20:09;26.00;40.10
3067;DHT22;1544;48.834;9.194;2022-08-19T13:22:46;25.90;40.50
3067;DHT22;1544;48.834;9.194;2022-08-19T13:25:22;25.90;40.90
3067;DHT22;1544;48.834;9.194;2022-08-19T13:27:57;25.90;41.10
3067;DHT22;1544;48.834;9.194;2022-08-19T13:30:34;25.80;41.70
3067;DHT22;1544;48.834;9.194;2022-08-19T13:33:27;25.70;42.00
3067;DHT22;1544;48.834;9.194;2022-08-19T13:36:04;25.60;42.30
3067;DHT22;1544;48.834;9.194;2022-08-19T13:38:42;25.50;42.50
3067;DHT22;1544;48.834;9.194;2022-08-19T13:41:17;25.40;42.90
3067;DHT22;1544;48.834;9.194;2022-08-19T13:43:54;25.30;42.90
3067;DHT22;1544;48.834;9.194;2022-08-19T13:46:29;25.30;43.70
3067;DHT22;1544;48.834;9.194;2022-08-19T13:49:05;25.10;45.20
3067;DHT22;1544;48.834;9.194;2022-08-19T13:51:41;25.10;46.50
3067;DHT22;1544;48.834;9.194;2022-08-19T13:54:16;24.90;47.60
3067;DHT22;1544;48.834;9.194;2022-08-19T13:56:51;24.90;49.80
3067;DHT22;1544;48.834;9.194;2022-08-19T13:59:26;24.80;52.40
3067;DHT22;1544;48.834;9.194;2022-08-19T14:02:01;24.70;51.70
3067;DHT22;1544;48.834;9.194;2022-08-19T14:04:36;24.60;53.30
3067;DHT22;1544;48.834;9.194;2022-08-19T14:07:12;24.50;55.40
3067;DHT22;1544;48.834;9.194;2022-08-19T14:09:47;24.40;56.70
3067;DHT22;1544;48.834;9.194;2022-08-19T14:12:23;24.20;56.20
3067;DHT22;1544;48.834;9.194;2022-08-19T14:15:04;24.20;57.20
3067;DHT22;1544;48.834;9.194;2022-08-19T14:17:42;24.10;57.30
3067;DHT22;1544;48.834;9.194;2022-08-19T14:20:18;24.10;58.10
3067;DHT22;1544;48.834;9.194;2022-08-19T14:22:59;24.20;56.80
3067;DHT22;1544;48.834;9.194;2022-08-19T14:25:34;24.30;56.20
3067;DHT22;1544;48.834;9.194;2022-08-19T14:28:09;24.30;56.60
3067;DHT22;1544;48.834;9.194;2022-08-19T14:30:44;24.40;56.60
3067;DHT22;1544;48.834;9.194;2022-08-19T14:33:19;24.50;55.50
3067;DHT22;1544;48.834;9.194;2022-08-19T14:36:02;24.70;54.80
3067;DHT22;1544;48.834;9.194;2022-08-19T14:38:38;24.70;55.00
3067;DHT22;1544;48.834;9.194;2022-08-19T14:41:19;24.70;54.90
3067;DHT22;1544;48.834;9.194;2022-08-19T14:43:56;24.60;55.30
3067;DHT22;1544;48.834;9.194;2022-08-19T14:46:31;24.60;55.30
3067;DHT22;1544;48.834;9.194;2022-08-19T14:49:06;24.50;55.60
3067;DHT22;1544;48.834;9.194;2022-08-19T14:51:43;24.50;56.40
3067;DHT22;1544;48.834;9.194;2022-08-19T14:54:20;24.50;56.90
3067;DHT22;1544;48.834;9.194;2022-08-19T14:56:58;24.50;56.20
3067;DHT22;1544;48.834;9.194;2022-08-19T14:59:34;24.60;55.60
3067;DHT22;1544;48.834;9.194;2022-08-19T15:02:10;24.80;54.70
3067;DHT22;1544;48.834;9.194;2022-08-19T15:05:06;25.00;54.00
3067;DHT22;1544;48.834;9.194;2022-08-19T15:07:41;25.30;53.00
3067;DHT22;1544;48.834;9.194;2022-08-19T15:10:16;25.50;52.20
3067;DHT22;1544;48.834;9.194;2022-08-19T15:12:51;25.70;51.10
3067;DHT22;1544;48.834;9.194;2022-08-19T15:15:28;26.00;49.90
3067;DHT22;1544;48.834;9.194;2022-08-19T15:18:03;26.20;48.80
3067;DHT22;1544;48.834;9.194;2022-08-19T15:20:38;26.30;48.00
3067;DHT22;1544;48.834;9.194;2022-08-19T15:23:17;26.40;47.50
3067;DHT22;1544;48.834;9.194;2022-08-19T15:25:53;26.60;46.80
3067;DHT22;1544;48.834;9.194;2022-08-19T15:28:30;26.70;46.50
3067;DHT22;1544;48.834;9.194;2022-08-19T15:31:07;26.80;45.80
3067;DHT22;1544;48.834;9.194;2022-08-19T15:33:57;26.90;44.90
3067;DHT22;1544;48.834;9.194;2022-08-19T15:36:33;26.90;44.10
3067;DHT22;1544;48.834;9.194;2022-08-19T15:39:09;26.90;44.20
3067;DHT22;1544;48.834;9.194;2022-08-19T15:41:45;27.00;44.10
3067;DHT22;1544;48.834;9.194;2022-08-19T15:44:21;27.20;44.10
3067;DHT22;1544;48.834;9.194;2022-08-19T15:46:56;27.30;43.60
3067;DHT22;1544;48.834;9.194;2022-08-19T15:49:31;27.40;42.80
3067;DHT22;1544;48.834;9.194;2022-08-19T15:52:06;27.50;42.60
3067;DHT22;1544;48.834;9.194;2022-08-19T15:54:41;27.60;42.20
3067;DHT22;1544;48.834;9.194;2022-08-19T15:57:16;27.60;41.60
3067;DHT22;1544;48.834;9.194;2022-08-19T15:59:57;27.60;41.50
3067;DHT22;1544;48.834;9.194;2022-08-19T16:03:00;27.70;41.20
3067;DHT22;1544;48.834;9.194;2022-08-19T16:05:53;27.80;41.20
3067;DHT22;1544;48.834;9.194;2022-08-19T16:08:47;27.70;40.70
3067;DHT22;1544;48.834;9.194;2022-08-19T16:11:26;27.80;40.50
3067;DHT22;1544;48.834;9.194;2022-08-19T16:14:04;27.70;40.30
3067;DHT22;1544;48.834;9.194;2022-08-19T16:16:41;27.70;40.10
3067;DHT22;1544;48.834;9.194;2022-08-19T16:19:17;27.70;40.10
3067;DHT22;1544;48.834;9.194;2022-08-19T16:21:54;27.80;40.00
3067;DHT22;1544;48.834;9.194;2022-08-19T16:24:31;27.80;39.80
3067;DHT22;1544;48.834;9.194;2022-08-19T16:27:07;27.90;39.60
3067;DHT22;1544;48.834;9.194;2022-08-19T16:29:42;28.00;39.30
3067;DHT22;1544;48.834;9.194;2022-08-19T16:32:17;28.20;38.90
3067;DHT22;1544;48.834;9.194;2022-08-19T16:34:53;28.20;38.40
3067;DHT22;1544;48.834;9.194;2022-08-19T16:37:28;28.20;38.10
3067;DHT22;1544;48.834;9.194;2022-08-19T16:40:04;28.10;38.40
3067;DHT22;1544;48.834;9.194;2022-08-19T16:42:42;28.10;38.40
3067;DHT22;1544;48.834;9.194;2022-08-19T16:45:17;27.90;38.40
3067;DHT22;1544;48.834;9.194;2022-08-19T16:47:53;27.80;38.60
3067;DHT22;1544;48.834;9.194;2022-08-19T16:50:28;27.70;38.70
3067;DHT22;1544;48.834;9.194;2022-08-19T16:53:24;27.60;38.90
3067;DHT22;1544;48.834;9.194;2022-08-19T16:56:05;27.40;39.10
3067;DHT22;1544;48.834;9.194;2022-08-19T16:58:40;27.20;39.40
3067;DHT22;1544;48.834;9.194;2022-08-19T17:01:17;26.90;39.70
3067;DHT22;1544;48.834;9.194;2022-08-19T17:03:53;26.60;40.10
3067;DHT22;1544;48.834;9.194;2022-08-19T17:06:29;26.40;40.40
3067;DHT22;1544;48.834;9.194;2022-08-19T17:09:05;26.20;40.80
3067;DHT22;1544;48.834;9.194;2022-08-19T17:11:41;26.10;41.10
3067;DHT22;1544;48.834;9.194;2022-08-19T17:14:16;26.00;41.50
3067;DHT22;1544;48.834;9.194;2022-08-19T17:16:53;25.90;41.60